Time;durP1;ratioP1;P1;durP2;ratioP2;P2;SDS_P1;SDS_P2;PMS_P1;PMS_P2;Temp;Humidity;BMP_temperature;BMP_pressure;BME280_temperature;BME280_humidity;BME280_pressure;Samples;Min_cycle;Max_cycle;Signal;HPM_P1;HPM_P2
2021/08/21 00:01:30;;;;;;;4.13;3.77;;;;;;;18.08;100.00;96670.66;4956208;28;20217;-79
2021/08/21 00:03:57;;;;;;;3.83;3.47;;;;;;;17.88;100.00;96667.06;4956778;28;20202;-78
2021/08/21 00:06:25;;;;;;;4.17;3.87;;;;;;;17.95;100.00;96663.44;4956717;29;20594;-78
2021/08/21 00:08:53;;;;;;;3.40;3.17;;;;;;;18.19;100.00;96663.97;4956670;28;20198;-78
2021/08/21 00:11:21;;;;;;;3.83;3.53;;;;;;;18.18;100.00;96664.97;4956573;29;20280;-78
2021/08/21 00:13:49;;;;;;;4.57;3.27;;;;;;;18.15;100.00;96668.03;4956092;28;20206;-78
2021/08/21 00:16:16;;;;;;;4.60;3.47;;;;;;;18.05;100.00;96665.75;4956143;28;20209;-78
2021/08/21 00:18:43;;;;;;;4.90;3.30;;;;;;;18.15;100.00;96668.88;4956155;28;20793;-79
2021/08/21 00:21:13;;;;;;;4.37;3.60;;;;;;;17.96;100.00;96661.59;4955827;29;20700;-77
2021/08/21 00:23:41;;;;;;;2.93;2.73;;;;;;;18.10;100.00;96660.63;4956119;28;20198;-78
2021/08/21 00:26:08;;;;;;;3.93;3.60;;;;;;;17.91;100.00;96664.00;4956130;28;20237;-78
2021/08/21 00:28:37;;;;;;;6.63;3.90;;;;;;;18.00;100.00;96655.66;4956243;28;20232;-78
2021/08/21 00:31:04;;;;;;;5.63;3.30;;;;;;;17.95;100.00;96654.63;4955939;29;20202;-79
2021/08/21 00:33:31;;;;;;;4.33;3.30;;;;;;;17.78;100.00;96657.59;4955987;28;20205;-78
2021/08/21 00:35:59;;;;;;;4.60;4.20;;;;;;;17.71;100.00;96659.34;4955806;29;20206;-78
2021/08/21 00:38:26;;;;;;;3.57;3.27;;;;;;;17.70;100.00;96657.72;4955848;29;20679;-78
2021/08/21 00:40:53;;;;;;;4.40;3.20;;;;;;;17.72;100.00;96654.84;4955500;29;20321;-78
2021/08/21 00:43:21;;;;;;;5.63;3.93;;;;;;;17.69;100.00;96649.91;4955590;29;20240;-78
2021/08/21 00:45:50;;;;;;;6.63;4.10;;;;;;;17.80;100.00;96650.25;4955781;29;20212;-78
2021/08/21 00:48:18;;;;;;;4.67;3.73;;;;;;;17.83;100.00;96646.34;4955882;28;20202;-78
2021/08/21 00:50:46;;;;;;;4.13;3.80;;;;;;;17.83;100.00;96646.34;4955080;28;20201;-78
2021/08/21 00:53:13;;;;;;;4.53;4.13;;;;;;;17.81;100.00;96645.75;4955333;29;20212;-78
2021/08/21 00:55:40;;;;;;;4.43;4.03;;;;;;;17.75;100.00;96644.63;4955906;29;20209;-78
2021/08/21 00:58:07;;;;;;;9.87;3.60;;;;;;;17.68;100.00;96638.47;4955304;28;20292;-78
2021/08/21 01:00:35;;;;;;;4.63;3.90;;;;;;;17.58;100.00;96640.63;4955402;29;20903;-78
2021/08/21 01:03:04;;;;;;;4.57;4.13;;;;;;;17.69;100.00;96629.47;4955409;29;20591;-78
2021/08/21 01:05:31;;;;;;;3.17;2.97;;;;;;;17.73;100.00;96637.88;4955403;29;20201;-78
2021/08/21 01:07:58;;;;;;;4.37;3.60;;;;;;;17.73;100.00;96635.22;4955267;29;20211;-78
2021/08/21 01:10:26;;;;;;;3.57;3.27;;;;;;;17.41;100.00;96639.28;4955069;29;20206;-78
2021/08/21 01:12:54;;;;;;;4.23;3.83;;;;;;;17.27;100.00;96639.16;4955182;28;20205;-77
2021/08/21 01:15:24;;;;;;;4.37;3.57;;;;;;;17.32;100.00;96639.44;4955278;28;20209;-78
2021/08/21 01:17:53;;;;;;;3.97;3.63;;;;;;;17.37;100.00;96633.53;4955007;28;20198;-78
2021/08/21 01:20:21;;;;;;;5.13;3.87;;;;;;;17.26;100.00;96634.06;4954999;28;20643;-77
2021/08/21 01:22:49;;;;;;;4.60;4.30;;;;;;;17.40;100.00;96632.31;4955211;29;20202;-77
2021/08/21 01:25:20;;;;;;;4.77;3.40;;;;;;;17.45;100.00;96635.22;4955024;28;20194;-77
2021/08/21 01:27:49;;;;;;;3.60;3.30;;;;;;;17.25;100.00;96635.91;4955240;28;20228;-78
2021/08/21 01:30:16;;;;;;;3.60;2.87;;;;;;;17.25;100.00;96633.25;4954555;28;20201;-78
2021/08/21 01:32:44;;;;;;;4.13;3.83;;;;;;;17.40;100.00;96633.16;4954577;28;20289;-78
2021/08/21 01:35:12;;;;;;;4.00;3.53;;;;;;;17.20;100.00;96621.53;4955126;29;20205;-78
2021/08/21 01:37:40;;;;;;;6.40;4.17;;;;;;;17.20;100.00;96614.38;4954528;28;20710;-78
2021/08/21 01:40:08;;;;;;;6.60;3.33;;;;;;;17.20;100.00;96619.69;4954648;28;20261;-78
2021/08/21 01:42:37;;;;;;;5.30;3.50;;;;;;;17.22;100.00;96622.19;4954428;28;20241;-77
2021/08/21 01:45:09;;;;;;;4.33;3.93;;;;;;;16.97;100.00;96619.06;4954444;28;20201;-78
2021/08/21 01:47:36;;;;;;;6.90;4.10;;;;;;;16.83;100.00;96610.16;4954611;29;20186;-78
2021/08/21 01:50:08;;;;;;;4.17;3.83;;;;;;;16.62;100.00;96614.41;4954836;28;20231;-78
2021/08/21 01:52:35;;;;;;;4.07;3.77;;;;;;;16.73;100.00;96610.47;4954325;29;20190;-78
2021/08/21 01:55:02;;;;;;;5.10;3.60;;;;;;;16.77;100.00;96609.09;4954515;28;20201;-78
2021/08/21 01:57:30;;;;;;;3.90;3.50;;;;;;;16.76;100.00;96617.22;4954357;28;20201;-78
2021/08/21 01:59:57;;;;;;;3.73;3.50;;;;;;;16.65;100.00;96616.69;4954114;28;20239;-78
2021/08/21 02:02:26;;;;;;;6.83;4.00;;;;;;;16.55;100.00;96615.34;4954030;28;20215;-78
2021/08/21 02:04:53;;;;;;;4.20;3.40;;;;;;;16.67;100.00;96621.81;4954469;28;20201;-78
2021/08/21 02:07:20;;;;;;;3.87;3.53;;;;;;;16.82;100.00;96622.59;4954401;28;20208;-77
2021/08/21 02:09:47;;;;;;;4.57;4.00;;;;;;;16.74;100.00;96628.06;4954138;28;20197;-78
2021/08/21 02:12:16;;;;;;;4.43;4.03;;;;;;;16.76;100.00;96618.06;4954354;28;20301;-78
2021/08/21 02:14:45;;;;;;;4.27;3.87;;;;;;;16.79;100.00;96616.84;4954286;28;20686;-77
2021/08/21 02:17:12;;;;;;;7.70;4.70;;;;;;;16.72;100.00;96619.41;4954003;28;20207;-78
2021/08/21 02:19:41;;;;;;;5.57;4.20;;;;;;;16.72;100.00;96624.72;4953802;29;20320;-78
2021/08/21 02:22:08;;;;;;;4.17;3.80;;;;;;;16.52;100.00;96618.38;4954025;28;20648;-78
2021/08/21 02:24:36;;;;;;;6.17;3.57;;;;;;;16.70;100.00;96607.38;4954141;29;20749;-78
2021/08/21 02:27:05;;;;;;;4.10;3.70;;;;;;;16.66;100.00;96614.88;4953760;28;20653;-78
2021/08/21 02:29:32;;;;;;;5.13;3.97;;;;;;;16.57;100.00;96618.66;4953789;29;20205;-78
2021/08/21 02:32:00;;;;;;;5.07;3.80;;;;;;;16.64;100.00;96617.69;4953439;29;20204;-78
2021/08/21 02:34:29;;;;;;;5.53;3.83;;;;;;;16.74;100.00;96616.59;4954406;29;20287;-78
2021/08/21 02:36:58;;;;;;;5.37;3.43;;;;;;;16.77;100.00;96624.22;4953359;28;20200;-77
2021/08/21 02:39:25;;;;;;;3.80;3.50;;;;;;;16.77;100.00;96617.06;4953929;29;20209;-77
2021/08/21 02:41:52;;;;;;;3.73;3.43;;;;;;;16.91;100.00;96627.81;4953897;29;20327;-77
2021/08/21 02:44:20;;;;;;;4.70;4.13;;;;;;;16.97;100.00;96627.03;4953581;29;20191;-77
2021/08/21 02:46:47;;;;;;;4.53;3.97;;;;;;;16.82;100.00;96619.97;4953586;29;20222;-77
2021/08/21 02:49:14;;;;;;;4.40;4.10;;;;;;;16.73;100.00;96623.72;4953703;29;20230;-77
2021/08/21 02:51:42;;;;;;;5.17;3.97;;;;;;;16.63;100.00;96629.34;4953614;28;20227;-78
2021/08/21 02:54:10;;;;;;;4.67;4.03;;;;;;;16.67;100.00;96627.13;4953495;28;20205;-77
2021/08/21 02:56:38;;;;;;;4.80;4.33;;;;;;;16.72;100.00;96621.25;4953718;29;20205;-78
2021/08/21 02:59:05;;;;;;;4.57;4.17;;;;;;;16.73;100.00;96626.38;4953924;28;20215;-78
2021/08/21 03:01:32;;;;;;;4.10;3.80;;;;;;;16.88;100.00;96634.31;4953487;29;20229;-77
2021/08/21 03:03:59;;;;;;;4.27;3.87;;;;;;;16.79;100.00;96638.09;4953669;28;20212;-77
2021/08/21 03:06:26;;;;;;;6.07;4.23;;;;;;;16.55;100.00;96640.03;4953790;29;20666;-78
2021/08/21 03:08:54;;;;;;;4.90;4.43;;;;;;;16.68;100.00;96636.72;4953533;28;20303;-78
2021/08/21 03:11:22;;;;;;;5.37;4.10;;;;;;;16.88;100.00;96643.09;4953606;28;20208;-78
2021/08/21 03:13:50;;;;;;;4.10;3.80;;;;;;;16.74;100.00;96638.66;4954174;28;20670;-78
2021/08/21 03:16:17;;;;;;;4.40;4.00;;;;;;;16.62;100.00;96640.13;4957550;28;20236;-79
2021/08/21 03:18:44;;;;;;;4.93;4.53;;;;;;;16.62;100.00;96642.78;4957244;29;20310;-78
2021/08/21 03:21:11;;;;;;;4.77;4.37;;;;;;;16.50;100.00;96642.44;4957563;29;20323;-78
2021/08/21 03:23:39;;;;;;;5.93;4.03;;;;;;;16.76;100.00;96646.44;4957262;28;20638;-78
2021/08/21 03:26:06;;;;;;;4.10;3.80;;;;;;;16.83;100.00;96650.81;4957247;28;20208;-78
2021/08/21 03:28:35;;;;;;;5.10;4.20;;;;;;;16.80;100.00;96651.19;4957187;28;20207;-77
2021/08/21 03:31:03;;;;;;;4.30;3.83;;;;;;;16.62;100.00;96645.44;4956901;29;20201;-77
2021/08/21 03:33:30;;;;;;;7.20;4.60;;;;;;;16.56;100.00;96647.03;4957031;29;20288;-77
2021/08/21 03:35:57;;;;;;;6.53;4.67;;;;;;;16.49;100.00;96645.31;4957168;28;20610;-77
2021/08/21 03:38:24;;;;;;;7.13;4.47;;;;;;;16.42;100.00;96647.88;4956864;28;20682;-77
2021/08/21 03:40:52;;;;;;;10.13;4.57;;;;;;;16.23;100.00;96651.91;4956682;29;20266;-77
2021/08/21 03:43:19;;;;;;;4.80;4.17;;;;;;;16.44;100.00;96653.81;4956479;28;20252;-77
2021/08/21 03:45:48;;;;;;;4.77;4.23;;;;;;;16.31;100.00;96649.16;4957279;28;20205;-78
2021/08/21 03:48:15;;;;;;;4.20;3.90;;;;;;;16.15;100.00;96644.06;4956822;29;20235;-78
2021/08/21 03:50:42;;;;;;;4.73;4.33;;;;;;;16.24;100.00;96645.59;4956619;28;20244;-78
2021/08/21 03:53:09;;;;;;;7.17;4.80;;;;;;;16.15;100.00;96644.88;4956518;29;20207;-79
2021/08/21 03:55:37;;;;;;;4.87;3.70;;;;;;;16.10;100.00;96644.59;4956495;29;20206;-78
2021/08/21 03:58:04;;;;;;;4.57;4.17;;;;;;;16.10;100.00;96643.78;4956425;28;20204;-78
2021/08/21 04:00:32;;;;;;;4.97;4.43;;;;;;;16.14;100.00;96653.84;4956845;28;20232;-77
2021/08/21 04:03:01;;;;;;;8.70;4.17;;;;;;;16.13;100.00;96646.88;4956590;28;20204;-77
2021/08/21 04:05:29;;;;;;;4.40;4.00;;;;;;;16.16;100.00;96651.00;4956602;28;20299;-77
2021/08/21 04:07:56;;;;;;;5.57;4.23;;;;;;;16.05;100.00;96649.63;4956215;29;20232;-77
2021/08/21 04:10:24;;;;;;;5.17;4.47;;;;;;;16.08;100.00;96651.09;4956437;28;20201;-77
2021/08/21 04:12:51;;;;;;;7.53;4.53;;;;;;;16.11;100.00;96650.75;4956305;28;20241;-78
2021/08/21 04:15:19;;;;;;;4.63;4.17;;;;;;;16.15;100.00;96652.03;4956350;28;20244;-78
2021/08/21 04:17:46;;;;;;;4.20;3.90;;;;;;;16.16;100.00;96654.47;4955991;28;20243;-77
2021/08/21 04:20:15;;;;;;;4.77;3.60;;;;;;;15.99;100.00;96654.84;4956264;28;20319;-78
2021/08/21 04:22:42;;;;;;;3.73;3.43;;;;;;;16.07;100.00;96650.28;4955904;28;20295;-77
2021/08/21 04:25:10;;;;;;;4.67;4.27;;;;;;;15.99;100.00;96649.56;4955033;28;20201;-77
2021/08/21 04:27:38;;;;;;;4.30;3.90;;;;;;;16.05;100.00;96641.69;4955969;28;20215;-78
2021/08/21 04:30:06;;;;;;;5.07;4.70;;;;;;;16.28;100.00;96644.25;4955930;28;20203;-78
2021/08/21 04:32:34;;;;;;;4.70;4.20;;;;;;;16.21;100.00;96647.78;4955738;29;20291;-78
2021/08/21 04:35:01;;;;;;;5.20;4.63;;;;;;;16.25;100.00;96644.59;4955968;28;20215;-78
2021/08/21 04:37:29;;;;;;;4.40;4.10;;;;;;;16.30;100.00;96646.69;4955752;29;20205;-78
2021/08/21 04:39:57;;;;;;;4.30;4.00;;;;;;;16.23;100.00;96641.31;4955628;28;20261;-78
2021/08/21 04:42:24;;;;;;;5.50;4.60;;;;;;;16.31;100.00;96643.03;4955679;29;20282;-77
2021/08/21 04:44:51;;;;;;;7.47;4.40;;;;;;;16.45;100.00;96644.81;4955831;28;20733;-78
2021/08/21 04:47:18;;;;;;;17.37;4.40;;;;;;;16.50;100.00;96644.28;4955369;29;20296;-78
2021/08/21 04:49:46;;;;;;;10.57;5.23;;;;;;;16.63;100.00;96647.91;4955757;29;20686;-78
2021/08/21 04:52:13;;;;;;;8.53;4.57;;;;;;;16.75;100.00;96642.13;4955810;28;20231;-77
2021/08/21 04:54:42;;;;;;;5.40;4.90;;;;;;;16.59;100.00;96641.34;4955968;29;20654;-77
2021/08/21 04:57:09;;;;;;;7.73;4.47;;;;;;;16.67;100.00;96643.06;4955212;28;20220;-77
2021/08/21 04:59:36;;;;;;;4.83;4.43;;;;;;;16.65;100.00;96650.38;4955466;29;20205;-77
2021/08/21 05:02:04;;;;;;;4.23;3.93;;;;;;;16.71;100.00;96649.63;4955602;28;20272;-77
2021/08/21 05:04:31;;;;;;;5.87;4.83;;;;;;;16.87;100.00;96659.22;4955433;28;20215;-77
2021/08/21 05:06:58;;;;;;;6.40;4.83;;;;;;;16.89;100.00;96662.50;4955377;28;20633;-77
2021/08/21 05:09:26;;;;;;;7.10;4.20;;;;;;;16.95;100.00;96666.25;4955661;29;20660;-77
2021/08/21 05:11:54;;;;;;;4.27;3.93;;;;;;;16.96;100.00;96668.69;4955134;28;20204;-77
2021/08/21 05:14:22;;;;;;;10.07;4.83;;;;;;;17.07;100.00;96670.84;4955219;29;20673;-77
2021/08/21 05:16:50;;;;;;;4.20;3.80;;;;;;;17.11;100.00;96671.28;4954623;28;20696;-77
2021/08/21 05:19:27;;;;;;;4.57;4.17;;;;;;;17.24;100.00;96668.75;4955116;29;20198;-77
2021/08/21 05:21:57;;;;;;;6.00;4.33;;;;;;;17.32;100.00;96675.81;4955028;29;20253;-77
2021/08/21 05:24:25;;;;;;;5.13;4.67;;;;;;;17.42;100.00;96686.09;4955131;29;20284;-77
2021/08/21 05:26:52;;;;;;;8.80;4.40;;;;;;;17.60;100.00;96683.81;4954498;29;20721;-77
2021/08/21 05:29:21;;;;;;;4.93;4.07;;;;;;;17.72;100.00;96679.59;4955074;29;20215;-78
2021/08/21 05:31:48;;;;;;;4.97;4.40;;;;;;;17.84;100.00;96679.94;4955108;29;20224;-77
2021/08/21 05:34:16;;;;;;;6.63;4.60;;;;;;;17.96;100.00;96690.84;4954702;28;20201;-77
2021/08/21 05:36:43;;;;;;;9.10;4.83;;;;;;;18.10;100.00;96692.56;4954556;28;20205;-77
2021/08/21 05:39:12;;;;;;;5.00;4.47;;;;;;;18.18;100.00;96688.91;4954758;28;20202;-77
2021/08/21 05:41:40;;;;;;;6.77;4.70;;;;;;;18.23;100.00;96687.31;4954750;29;20312;-77
2021/08/21 05:44:07;;;;;;;6.63;4.40;;;;;;;18.30;100.00;96693.50;4954367;28;20206;-77
2021/08/21 05:46:36;;;;;;;6.50;4.57;;;;;;;18.44;100.00;96696.22;4954461;28;20590;-77
2021/08/21 05:49:04;;;;;;;5.43;4.67;;;;;;;18.62;100.00;96691.19;4954533;29;20689;-77
2021/08/21 05:51:32;;;;;;;5.27;4.77;;;;;;;18.84;100.00;96688.41;4954412;28;20200;-77
2021/08/21 05:53:59;;;;;;;5.40;3.97;;;;;;;18.98;100.00;96690.09;4954464;28;20213;-77
2021/08/21 05:56:26;;;;;;;4.53;4.13;;;;;;;19.04;100.00;96694.63;4954833;29;20223;-77
2021/08/21 05:58:54;;;;;;;4.57;3.97;;;;;;;19.24;100.00;96695.50;4954132;28;20202;-77
2021/08/21 06:01:21;;;;;;;6.63;4.70;;;;;;;19.44;100.00;96695.53;4962339;28;20233;-77
2021/08/21 06:03:51;;;;;;;4.37;3.93;;;;;;;19.54;100.00;96695.13;4973300;28;20296;-78
2021/08/21 06:06:19;;;;;;;9.53;4.70;;;;;;;19.67;100.00;96703.16;4974267;28;20208;-77
2021/08/21 06:08:46;;;;;;;4.77;4.30;;;;;;;19.81;100.00;96701.31;4992619;28;20204;-78
2021/08/21 06:11:14;;;;;;;5.43;4.40;;;;;;;20.04;100.00;96700.84;4992932;28;20581;-78
2021/08/21 06:13:41;;;;;;;5.53;4.03;;;;;;;20.17;100.00;96700.84;4992596;28;20672;-78
2021/08/21 06:16:08;;;;;;;4.80;4.40;;;;;;;20.27;100.00;96705.75;4990729;28;20200;-76
2021/08/21 06:18:35;;;;;;;4.30;3.60;;;;;;;20.31;100.00;96708.81;4962500;28;20586;-77
2021/08/21 06:21:04;;;;;;;5.77;4.63;;;;;;;20.43;100.00;96704.47;4973036;28;20229;-76
2021/08/21 06:23:31;;;;;;;8.40;4.53;;;;;;;20.49;100.00;96713.50;4973263;28;20209;-76
2021/08/21 06:25:59;;;;;;;4.20;3.90;;;;;;;20.70;100.00;96717.78;4972946;28;20696;-76
2021/08/21 06:28:26;;;;;;;5.63;5.03;;;;;;;20.83;100.00;96713.19;4973114;28;20212;-76
2021/08/21 06:30:53;;;;;;;5.03;4.30;;;;;;;20.97;100.00;96713.13;4973158;28;20216;-76
2021/08/21 06:33:20;;;;;;;4.77;4.00;;;;;;;21.16;100.00;96714.03;4973376;28;20586;-76
2021/08/21 06:35:47;;;;;;;4.10;3.60;;;;;;;21.34;100.00;96716.88;4973123;28;20217;-76
2021/08/21 06:38:16;;;;;;;5.73;3.97;;;;;;;21.49;100.00;96721.91;4973112;28;20232;-76
2021/08/21 06:40:43;;;;;;;3.57;3.33;;;;;;;21.59;100.00;96720.38;4973208;28;20197;-76
2021/08/21 06:43:10;;;;;;;6.63;3.60;;;;;;;21.83;100.00;96716.09;4972690;28;20248;-76
2021/08/21 06:45:38;;;;;;;5.37;4.00;;;;;;;21.95;100.00;96724.22;4971975;28;20212;-76
2021/08/21 06:48:06;;;;;;;4.23;3.57;;;;;;;22.19;100.00;96725.25;4972334;28;20204;-76
2021/08/21 06:50:36;;;;;;;3.80;3.40;;;;;;;22.29;100.00;96732.78;4972741;28;20596;-76
2021/08/21 06:53:04;;;;;;;4.53;3.83;;;;;;;22.60;100.00;96737.19;4972853;28;20263;-76
2021/08/21 06:55:32;;;;;;;6.73;3.70;;;;;;;22.77;100.00;96730.19;4973005;28;20703;-76
2021/08/21 06:57:59;;;;;;;5.80;3.67;;;;;;;22.86;100.00;96730.72;4972978;28;20588;-77
2021/08/21 07:00:27;;;;;;;4.00;3.70;;;;;;;23.16;100.00;96724.59;4972956;28;20204;-77
2021/08/21 07:02:54;;;;;;;3.90;3.60;;;;;;;23.41;100.00;96725.25;4972680;28;20603;-76
2021/08/21 07:05:21;;;;;;;4.47;4.07;;;;;;;23.44;100.00;96732.84;4972944;28;20201;-76
2021/08/21 07:07:48;;;;;;;4.80;4.00;;;;;;;23.75;100.00;96730.16;4972594;28;20201;-76
2021/08/21 07:10:16;;;;;;;4.30;3.37;;;;;;;23.92;100.00;96725.75;4968171;28;20667;-77
2021/08/21 07:12:44;;;;;;;4.20;3.83;;;;;;;24.05;100.00;96730.09;4953169;29;20212;-76
2021/08/21 07:15:12;;;;;;;4.63;3.43;;;;;;;24.07;100.00;96736.03;4970320;28;20212;-76
2021/08/21 07:17:40;;;;;;;4.50;4.20;;;;;;;24.36;100.00;96740.47;4972652;28;20580;-76
2021/08/21 07:20:08;;;;;;;4.17;3.40;;;;;;;24.77;100.00;96740.59;4973106;28;20284;-76
2021/08/21 07:22:35;;;;;;;4.97;4.20;;;;;;;25.21;100.00;96739.06;4972369;28;20228;-76
2021/08/21 07:25:03;;;;;;;4.80;3.83;;;;;;;25.55;100.00;96741.84;4972836;28;20201;-77
2021/08/21 07:27:30;;;;;;;4.83;3.90;;;;;;;25.73;100.00;96744.31;4972574;28;20256;-76
2021/08/21 07:29:59;;;;;;;5.10;3.77;;;;;;;25.80;100.00;96741.47;4972955;28;20694;-76
2021/08/21 07:32:26;;;;;;;4.20;3.80;;;;;;;26.05;100.00;96746.50;4972378;28;20204;-76
2021/08/21 07:34:53;;;;;;;3.70;3.40;;;;;;;25.56;100.00;96748.84;4972652;28;20621;-76
2021/08/21 07:37:21;;;;;;;4.10;3.80;;;;;;;25.60;100.00;96750.81;4972499;28;20675;-76
2021/08/21 07:39:48;;;;;;;4.27;3.63;;;;;;;25.49;100.00;96742.78;4972675;28;20637;-76
2021/08/21 07:42:16;;;;;;;4.03;3.60;;;;;;;25.56;100.00;96749.69;4972269;28;20249;-76
2021/08/21 07:44:43;;;;;;;5.10;3.63;;;;;;;25.52;100.00;96745.81;4972859;28;20201;-76
2021/08/21 07:47:11;;;;;;;4.40;4.00;;;;;;;25.69;100.00;96747.72;4972697;28;20615;-76
2021/08/21 07:49:38;;;;;;;4.17;3.70;;;;;;;26.34;100.00;96744.50;4972494;28;20237;-76
2021/08/21 07:52:06;;;;;;;4.00;3.70;;;;;;;26.33;100.00;96742.88;4966619;28;20201;-76
2021/08/21 07:54:33;;;;;;;4.13;3.73;;;;;;;26.31;100.00;96743.09;4953215;28;20202;-76
2021/08/21 07:57:01;;;;;;;6.20;4.20;;;;;;;26.48;100.00;96743.13;4953443;28;20205;-77
2021/08/21 07:59:28;;;;;;;3.35;3.05;;;;;;;26.82;100.00;96744.91;4953138;28;20208;-79
2021/08/21 08:01:55;;;;;;;4.22;3.90;;;;;;;27.05;100.00;96750.03;4956450;28;20236;-75
2021/08/21 08:04:24;;;;;;;4.43;4.03;;;;;;;27.09;100.00;96751.19;4956396;28;20201;-78
2021/08/21 08:06:51;;;;;;;3.72;3.42;;;;;;;27.23;100.00;96751.66;4956435;28;20202;-76
2021/08/21 08:09:18;;;;;;;4.25;3.85;;;;;;;27.53;100.00;96740.34;4956541;28;20292;-78
2021/08/21 08:11:45;;;;;;;4.35;3.75;;;;;;;26.92;100.00;96745.84;4956322;29;20709;-80
2021/08/21 08:14:12;;;;;;;3.85;3.53;;;;;;;26.91;100.00;96740.69;4956625;28;20201;-78
2021/08/21 08:16:39;;;;;;;4.07;3.78;;;;;;;27.43;100.00;96726.75;4956082;28;20213;-80
2021/08/21 08:19:06;;;;;;;5.88;4.43;;;;;;;27.58;100.00;96731.50;4956188;28;20208;-78
2021/08/21 08:21:35;;;;;;;4.05;3.38;;;;;;;27.85;100.00;96731.47;4956077;28;20233;-78
2021/08/21 08:24:03;;;;;;;3.97;3.60;;;;;;;28.27;100.00;96728.84;4956186;28;20201;-77
2021/08/21 08:26:30;;;;;;;5.40;3.83;;;;;;;28.53;100.00;96737.13;4955625;28;20198;-77
2021/08/21 08:28:58;;;;;;;5.40;4.32;;;;;;;28.21;100.00;96725.28;4956183;28;20198;-77
2021/08/21 08:31:25;;;;;;;4.53;4.13;;;;;;;28.41;100.00;96729.22;4955920;28;20202;-76
2021/08/21 08:33:52;;;;;;;5.65;4.28;;;;;;;28.65;100.00;96733.16;4955892;28;20209;-77
2021/08/21 08:36:19;;;;;;;4.03;3.63;;;;;;;28.72;100.00;96732.91;4955813;28;20208;-78
2021/08/21 08:38:49;;;;;;;9.77;4.30;;;;;;;29.21;100.00;96726.38;4955993;29;20202;-79
2021/08/21 08:41:22;;;;;;;4.43;3.75;;;;;;;29.45;100.00;96724.81;4955917;28;20202;-77
2021/08/21 08:43:49;;;;;;;4.90;4.25;;;;;;;29.24;100.00;96723.13;4955634;29;20703;-77
2021/08/21 08:46:19;;;;;;;4.40;4.00;;;;;;;29.21;100.00;96721.78;4955640;28;20205;-78
2021/08/21 08:48:46;;;;;;;6.18;4.03;;;;;;;29.29;100.00;96721.25;4955850;28;20237;-78
2021/08/21 08:51:14;;;;;;;5.93;3.63;;;;;;;28.74;100.00;96717.22;4953967;28;20722;-78
2021/08/21 08:53:42;;;;;;;3.80;3.50;;;;;;;28.56;100.00;96714.97;4953208;29;20202;-78
2021/08/21 08:56:11;;;;;;;4.47;4.07;;;;;;;28.54;100.00;96712.56;4954735;28;20212;-77
2021/08/21 08:58:38;;;;;;;4.03;3.65;;;;;;;28.54;100.00;96706.31;4954813;28;20231;-77
2021/08/21 09:01:05;;;;;;;5.45;4.00;;;;;;;28.73;100.00;96703.97;4955050;28;20217;-77
2021/08/21 09:03:33;;;;;;;6.18;4.47;;;;;;;28.40;100.00;96704.09;4955031;28;20715;-77
2021/08/21 09:06:00;;;;;;;4.30;3.92;;;;;;;28.62;100.00;96698.53;4955271;28;20197;-78
2021/08/21 09:08:29;;;;;;;5.38;3.40;;;;;;;28.63;100.00;96702.84;4955408;29;20202;-77
2021/08/21 09:10:58;;;;;;;4.25;3.80;;;;;;;28.72;100.00;96702.34;4955282;28;20743;-78
2021/08/21 09:13:28;;;;;;;4.57;3.50;;;;;;;29.42;100.00;96705.56;4955252;28;20273;-77
2021/08/21 09:15:58;;;;;;;3.90;3.60;;;;;;;29.29;100.00;96705.00;4955334;29;20272;-77
2021/08/21 09:18:27;;;;;;;4.60;4.20;;;;;;;29.09;100.00;96704.94;4955484;28;20209;-77
2021/08/21 09:21:00;;;;;;;4.85;3.65;;;;;;;29.33;100.00;96706.09;4955539;28;20212;-77
2021/08/21 09:23:30;;;;;;;5.43;4.32;;;;;;;28.88;100.00;96712.16;4955085;29;20205;-78
2021/08/21 09:26:06;;;;;;;3.88;3.55;;;;;;;28.03;100.00;96704.09;4955099;28;20186;-77
2021/08/21 09:28:35;;;;;;;7.18;4.28;;;;;;;27.53;100.00;96697.16;4955180;28;20193;-77
2021/08/21 09:31:06;;;;;;;4.18;3.72;;;;;;;28.39;100.00;96696.22;4954971;28;20751;-77
2021/08/21 09:33:34;;;;;;;3.75;3.45;;;;;;;28.84;100.00;96690.22;4955509;29;20225;-77
2021/08/21 09:36:02;;;;;;;5.20;4.43;;;;;;;29.19;100.00;96693.34;4954984;28;20228;-77
2021/08/21 09:38:30;;;;;;;7.28;4.95;;;;;;;28.81;100.00;96689.94;4955129;29;20639;-77
2021/08/21 09:41:03;;;;;;;4.20;3.90;;;;;;;28.98;100.00;96690.53;4954922;28;20257;-77
2021/08/21 09:43:33;;;;;;;5.57;4.20;;;;;;;29.26;100.00;96692.00;4954481;28;20273;-77
2021/08/21 09:46:17;;;;;;;6.18;3.47;;;;;;;29.40;100.00;96689.56;4955043;29;20211;-78
2021/08/21 09:49:04;;;;;;;4.00;3.70;;;;;;;29.36;100.00;96683.09;4954882;29;20222;-77
2021/08/21 09:51:40;;;;;;;4.07;3.67;;;;;;;29.44;100.00;96676.31;4954819;29;20634;-77
2021/08/21 09:54:09;;;;;;;3.70;3.40;;;;;;;29.46;100.00;96679.59;4954606;29;20643;-77
2021/08/21 09:56:38;;;;;;;4.88;3.88;;;;;;;29.70;100.00;96674.47;4954690;28;20206;-78
2021/08/21 09:59:07;;;;;;;3.97;3.67;;;;;;;29.35;100.00;96676.06;4954205;29;20237;-77
2021/08/21 10:01:36;;;;;;;4.28;3.88;;;;;;;29.10;100.00;96674.91;4954530;29;20216;-77
2021/08/21 10:04:05;;;;;;;4.97;4.13;;;;;;;29.12;100.00;96680.88;4954710;29;20201;-77
2021/08/21 10:06:32;;;;;;;4.90;4.05;;;;;;;29.48;100.00;96661.16;4954008;29;20200;-78
2021/08/21 10:09:03;;;;;;;4.65;3.90;;;;;;;29.80;100.00;96663.66;4954298;29;20205;-78
2021/08/21 10:11:37;;;;;;;5.28;4.13;;;;;;;29.52;100.00;96664.97;4955085;29;20190;-79
2021/08/21 10:14:07;;;;;;;3.97;3.60;;;;;;;29.36;100.00;96669.53;4954823;28;20194;-77
2021/08/21 10:16:37;;;;;;;3.67;3.38;;;;;;;29.42;100.00;96663.06;4954279;28;20206;-77
2021/08/21 10:19:06;;;;;;;9.70;4.30;;;;;;;29.71;100.00;96660.66;4954306;29;20697;-77
2021/08/21 10:21:33;;;;;;;5.03;4.13;;;;;;;29.65;100.00;96658.22;4954099;28;20206;-78
2021/08/21 10:24:00;;;;;;;3.80;3.45;;;;;;;29.67;100.00;96656.88;4954383;28;20201;-78
2021/08/21 10:26:34;;;;;;;3.70;3.40;;;;;;;29.54;100.00;96647.34;4954009;28;20260;-78
2021/08/21 10:29:02;;;;;;;4.72;3.50;;;;;;;30.16;100.00;96650.03;4953889;28;20194;-78
2021/08/21 10:31:39;;;;;;;4.10;3.72;;;;;;;30.21;100.00;96650.88;4953933;29;20205;-78
2021/08/21 10:34:07;;;;;;;4.07;3.60;;;;;;;30.09;100.00;96658.44;4954139;28;20651;-78
2021/08/21 10:36:42;;;;;;;4.82;3.53;;;;;;;29.94;100.00;96664.72;4953896;28;20208;-78
2021/08/21 10:39:35;;;;;;;4.38;3.97;;;;;;;29.97;100.00;96652.53;4953703;29;20671;-78
2021/08/21 10:42:27;;;;;;;4.65;3.65;;;;;;;30.08;100.00;96659.53;4950756;28;20637;-78
2021/08/21 10:44:55;;;;;;;4.38;3.35;;;;;;;30.31;100.00;96653.56;4954822;28;20220;-78
2021/08/21 10:47:40;;;;;;;4.20;3.80;;;;;;;30.36;100.00;96646.50;4953729;29;20248;-78
2021/08/21 10:50:36;;;;;;;3.60;3.30;;;;;;;29.82;100.00;96645.19;4954244;28;20205;-77
2021/08/21 10:53:05;;;;;;;4.30;3.60;;;;;;;30.20;100.00;96649.25;4954036;28;20591;-78
2021/08/21 10:55:43;;;;;;;4.88;3.85;;;;;;;30.30;100.00;96648.41;4953790;29;20683;-79
2021/08/21 10:58:14;;;;;;;3.50;3.20;;;;;;;30.63;100.00;96644.22;4953772;29;20217;-78
2021/08/21 11:00:52;;;;;;;4.05;3.65;;;;;;;30.41;100.00;96644.56;4953849;28;20277;-77
2021/08/21 11:03:44;;;;;;;3.90;3.05;;;;;;;30.26;100.00;96645.44;4953553;28;20220;-78
2021/08/21 11:06:13;;;;;;;4.03;3.72;;;;;;;30.13;100.00;96639.75;4953413;28;20814;-78
2021/08/21 11:09:02;;;;;;;3.60;3.30;;;;;;;30.35;100.00;96637.56;4953962;28;20201;-78
2021/08/21 11:11:36;;;;;;;3.53;3.20;;;;;;;30.06;100.00;96640.84;4953504;29;20194;-78
2021/08/21 11:14:06;;;;;;;8.35;7.10;;;;;;;30.04;100.00;96637.59;4953439;29;20182;-78
2021/08/21 11:16:51;;;;;;;3.63;3.33;;;;;;;30.44;100.00;96640.50;4953437;28;20201;-78
2021/08/21 11:19:46;;;;;;;4.30;4.00;;;;;;;30.37;100.00;96634.56;4953697;29;20245;-78
2021/08/21 11:22:32;;;;;;;7.35;4.88;;;;;;;30.09;100.00;96637.56;4953248;28;20202;-77
2021/08/21 11:25:11;;;;;;;9.30;6.90;;;;;;;30.74;100.00;96624.09;4953388;29;20684;-78
2021/08/21 11:27:43;;;;;;;4.43;4.13;;;;;;;30.54;100.00;96633.13;4953647;29;20301;-78
2021/08/21 11:30:27;;;;;;;4.55;3.90;;;;;;;30.59;100.00;96620.63;4953556;29;20589;-78
2021/08/21 11:33:02;;;;;;;3.78;3.47;;;;;;;30.49;100.00;96626.94;4953687;29;20217;-78